sensor_id;sensor_type;location;lat;lon;timestamp;temperature;humidity
47805;DHT22;33568;45.286;9.900;2023-03-01T00:00:00;6.60;79.60
47805;DHT22;33568;45.286;9.900;2023-03-01T00:02:26;6.60;79.70
47805;DHT22;33568;45.286;9.900;2023-03-01T00:05:11;6.60;79.90
47805;DHT22;33568;45.286;9.900;2023-03-01T00:07:38;6.50;79.80
47805;DHT22;33568;45.286;9.900;2023-03-01T00:10:05;6.50;80.10
47805;DHT22;33568;45.286;9.900;2023-03-01T00:12:31;6.60;80.20
47805;DHT22;33568;45.286;9.900;2023-03-01T00:15:16;6.50;80.20
47805;DHT22;33568;45.286;9.900;2023-03-01T00:17:43;6.50;80.40
47805;DHT22;33568;45.286;9.900;2023-03-01T00:20:10;6.50;80.60
47805;DHT22;33568;45.286;9.900;2023-03-01T00:22:36;6.50;80.50
47805;DHT22;33568;45.286;9.900;2023-03-01T00:25:04;6.50;80.70
47805;DHT22;33568;45.286;9.900;2023-03-01T00:27:31;6.50;80.70
47805;DHT22;33568;45.286;9.900;2023-03-01T00:29:57;6.40;82.50
47805;DHT22;33568;45.286;9.900;2023-03-01T00:32:42;6.50;80.80
47805;DHT22;33568;45.286;9.900;2023-03-01T00:35:26;6.50;80.70
47805;DHT22;33568;45.286;9.900;2023-03-01T00:37:53;6.50;80.70
47805;DHT22;33568;45.286;9.900;2023-03-01T00:40:42;6.50;80.80
47805;DHT22;33568;45.286;9.900;2023-03-01T00:43:09;6.50;81.00
47805;DHT22;33568;45.286;9.900;2023-03-01T00:45:36;6.40;82.60
47805;DHT22;33568;45.286;9.900;2023-03-01T00:48:03;6.40;81.20
47805;DHT22;33568;45.286;9.900;2023-03-01T00:50:29;6.40;81.10
47805;DHT22;33568;45.286;9.900;2023-03-01T00:52:56;6.40;81.10
47805;DHT22;33568;45.286;9.900;2023-03-01T00:55:23;6.40;81.20
47805;DHT22;33568;45.286;9.900;2023-03-01T00:58:08;6.40;81.30
47805;DHT22;33568;45.286;9.900;2023-03-01T01:00:34;6.30;81.70
47805;DHT22;33568;45.286;9.900;2023-03-01T01:03:00;6.30;81.80
47805;DHT22;33568;45.286;9.900;2023-03-01T01:05:27;6.30;81.80
47805;DHT22;33568;45.286;9.900;2023-03-01T01:07:53;6.30;81.80
47805;DHT22;33568;45.286;9.900;2023-03-01T01:13:04;6.30;81.80
47805;DHT22;33568;45.286;9.900;2023-03-01T01:15:34;6.30;81.90
47805;DHT22;33568;45.286;9.900;2023-03-01T01:20:46;6.20;81.80
47805;DHT22;33568;45.286;9.900;2023-03-01T01:23:12;6.20;81.90
47805;DHT22;33568;45.286;9.900;2023-03-01T01:25:39;6.10;82.00
47805;DHT22;33568;45.286;9.900;2023-03-01T01:28:05;6.10;82.10
47805;DHT22;33568;45.286;9.900;2023-03-01T01:30:32;6.10;82.10
47805;DHT22;33568;45.286;9.900;2023-03-01T01:33:17;6.10;82.20
47805;DHT22;33568;45.286;9.900;2023-03-01T01:35:45;6.10;82.20
47805;DHT22;33568;45.286;9.900;2023-03-01T01:38:11;6.00;82.20
47805;DHT22;33568;45.286;9.900;2023-03-01T01:40:48;6.10;82.30
47805;DHT22;33568;45.286;9.900;2023-03-01T01:43:22;6.00;82.30
47805;DHT22;33568;45.286;9.900;2023-03-01T01:45:49;6.00;82.30
47805;DHT22;33568;45.286;9.900;2023-03-01T01:48:20;6.00;82.50
47805;DHT22;33568;45.286;9.900;2023-03-01T01:50:54;6.00;82.60
47805;DHT22;33568;45.286;9.900;2023-03-01T01:53:41;6.00;82.60
47805;DHT22;33568;45.286;9.900;2023-03-01T01:56:12;6.00;82.60
47805;DHT22;33568;45.286;9.900;2023-03-01T01:58:41;5.90;82.50
47805;DHT22;33568;45.286;9.900;2023-03-01T02:01:08;5.90;82.40
47805;DHT22;33568;45.286;9.900;2023-03-01T02:03:37;5.90;82.50
47805;DHT22;33568;45.286;9.900;2023-03-01T02:09:11;5.80;82.50
47805;DHT22;33568;45.286;9.900;2023-03-01T02:11:38;5.70;82.50
47805;DHT22;33568;45.286;9.900;2023-03-01T02:14:05;5.60;82.50
47805;DHT22;33568;45.286;9.900;2023-03-01T02:16:31;5.50;83.30
47805;DHT22;33568;45.286;9.900;2023-03-01T02:18:58;5.40;83.00
47805;DHT22;33568;45.286;9.900;2023-03-01T02:21:47;5.40;83.00
47805;DHT22;33568;45.286;9.900;2023-03-01T02:24:30;5.30;83.50
47805;DHT22;33568;45.286;9.900;2023-03-01T02:26:58;5.30;83.50
47805;DHT22;33568;45.286;9.900;2023-03-01T02:29:27;5.30;83.80
47805;DHT22;33568;45.286;9.900;2023-03-01T02:31:56;5.30;83.90
47805;DHT22;33568;45.286;9.900;2023-03-01T02:34:27;5.20;84.00
47805;DHT22;33568;45.286;9.900;2023-03-01T02:36:59;5.20;84.10
47805;DHT22;33568;45.286;9.900;2023-03-01T02:39:48;5.30;84.30
47805;DHT22;33568;45.286;9.900;2023-03-01T02:42:26;5.20;84.40
47805;DHT22;33568;45.286;9.900;2023-03-01T02:44:52;5.20;84.60
47805;DHT22;33568;45.286;9.900;2023-03-01T02:47:19;5.20;84.60
47805;DHT22;33568;45.286;9.900;2023-03-01T02:49:46;5.30;84.70
47805;DHT22;33568;45.286;9.900;2023-03-01T02:57:25;5.20;85.00
47805;DHT22;33568;45.286;9.900;2023-03-01T02:59:55;5.20;84.90
47805;DHT22;33568;45.286;9.900;2023-03-01T03:02:28;5.20;84.90
47805;DHT22;33568;45.286;9.900;2023-03-01T03:05:12;5.20;84.90
47805;DHT22;33568;45.286;9.900;2023-03-01T03:07:41;5.10;84.90
47805;DHT22;33568;45.286;9.900;2023-03-01T03:10:11;5.10;85.10
47805;DHT22;33568;45.286;9.900;2023-03-01T03:13:07;5.10;85.50
47805;DHT22;33568;45.286;9.900;2023-03-01T03:15:34;5.10;86.00
47805;DHT22;33568;45.286;9.900;2023-03-01T03:18:04;5.10;85.90
47805;DHT22;33568;45.286;9.900;2023-03-01T03:20:49;5.10;86.00
47805;DHT22;33568;45.286;9.900;2023-03-01T03:26:06;5.10;86.30
47805;DHT22;33568;45.286;9.900;2023-03-01T03:28:34;5.10;86.30
47805;DHT22;33568;45.286;9.900;2023-03-01T03:31:01;5.10;86.40
47805;DHT22;33568;45.286;9.900;2023-03-01T03:33:31;5.10;86.30
47805;DHT22;33568;45.286;9.900;2023-03-01T03:36:16;5.00;86.30
47805;DHT22;33568;45.286;9.900;2023-03-01T03:39:02;5.00;86.50
47805;DHT22;33568;45.286;9.900;2023-03-01T03:41:29;5.00;86.60
47805;DHT22;33568;45.286;9.900;2023-03-01T03:43:55;5.00;86.40
47805;DHT22;33568;45.286;9.900;2023-03-01T03:46:40;5.00;86.50
47805;DHT22;33568;45.286;9.900;2023-03-01T03:49:06;4.90;86.70
47805;DHT22;33568;45.286;9.900;2023-03-01T03:51:51;5.00;86.90
47805;DHT22;33568;45.286;9.900;2023-03-01T03:54:36;4.90;87.00
47805;DHT22;33568;45.286;9.900;2023-03-01T04:00:11;4.80;87.30
47805;DHT22;33568;45.286;9.900;2023-03-01T04:02:42;4.80;87.50
47805;DHT22;33568;45.286;9.900;2023-03-01T04:11:03;4.80;88.00
47805;DHT22;33568;45.286;9.900;2023-03-01T04:13:49;4.80;87.80
47805;DHT22;33568;45.286;9.900;2023-03-01T04:16:16;4.70;87.80
47805;DHT22;33568;45.286;9.900;2023-03-01T04:18:43;4.70;88.10
47805;DHT22;33568;45.286;9.900;2023-03-01T04:24:14;4.70;88.30
47805;DHT22;33568;45.286;9.900;2023-03-01T04:26:40;4.70;88.40
47805;DHT22;33568;45.286;9.900;2023-03-01T04:29:07;4.70;88.40
47805;DHT22;33568;45.286;9.900;2023-03-01T04:31:51;4.70;88.40
47805;DHT22;33568;45.286;9.900;2023-03-01T04:34:19;4.70;88.60
47805;DHT22;33568;45.286;9.900;2023-03-01T04:36:45;4.70;88.60
47805;DHT22;33568;45.286;9.900;2023-03-01T04:39:11;4.70;88.70
47805;DHT22;33568;45.286;9.900;2023-03-01T04:41:40;4.70;88.60
47805;DHT22;33568;45.286;9.900;2023-03-01T04:44:07;4.60;88.70
47805;DHT22;33568;45.286;9.900;2023-03-01T04:46:35;4.60;88.90
47805;DHT22;33568;45.286;9.900;2023-03-01T04:51:47;4.60;88.70
47805;DHT22;33568;45.286;9.900;2023-03-01T04:54:32;4.60;88.90
47805;DHT22;33568;45.286;9.900;2023-03-01T04:56:59;4.60;89.40
47805;DHT22;33568;45.286;9.900;2023-03-01T04:59:26;4.60;89.10
47805;DHT22;33568;45.286;9.900;2023-03-01T05:01:53;4.60;89.10
47805;DHT22;33568;45.286;9.900;2023-03-01T05:04:24;4.50;90.10
47805;DHT22;33568;45.286;9.900;2023-03-01T05:06:50;4.60;89.10
47805;DHT22;33568;45.286;9.900;2023-03-01T05:09:17;4.60;89.00
47805;DHT22;33568;45.286;9.900;2023-03-01T05:12:02;4.50;90.00
47805;DHT22;33568;45.286;9.900;2023-03-01T05:14:28;4.50;89.30
47805;DHT22;33568;45.286;9.900;2023-03-01T05:16:55;4.60;89.20
47805;DHT22;33568;45.286;9.900;2023-03-01T05:19:40;4.60;89.20
47805;DHT22;33568;45.286;9.900;2023-03-01T05:22:08;4.60;89.40
47805;DHT22;33568;45.286;9.900;2023-03-01T05:24:35;4.70;89.20
47805;DHT22;33568;45.286;9.900;2023-03-01T05:27:02;4.70;89.20
47805;DHT22;33568;45.286;9.900;2023-03-01T05:29:30;4.70;89.10
47805;DHT22;33568;45.286;9.900;2023-03-01T05:32:16;4.70;89.10
47805;DHT22;33568;45.286;9.900;2023-03-01T05:34:42;4.80;89.00
47805;DHT22;33568;45.286;9.900;2023-03-01T05:40:17;4.80;89.40
47805;DHT22;33568;45.286;9.900;2023-03-01T05:43:02;4.70;88.90
47805;DHT22;33568;45.286;9.900;2023-03-01T05:45:32;4.70;88.70
47805;DHT22;33568;45.286;9.900;2023-03-01T05:48:01;4.70;88.80
47805;DHT22;33568;45.286;9.900;2023-03-01T05:50:28;4.70;89.00
47805;DHT22;33568;45.286;9.900;2023-03-01T05:53:06;4.70;90.00
47805;DHT22;33568;45.286;9.900;2023-03-01T05:55:52;4.70;89.00
47805;DHT22;33568;45.286;9.900;2023-03-01T05:58:19;4.70;88.90
47805;DHT22;33568;45.286;9.900;2023-03-01T06:00:47;4.70;89.80
47805;DHT22;33568;45.286;9.900;2023-03-01T06:03:16;4.70;88.90
47805;DHT22;33568;45.286;9.900;2023-03-01T06:05:42;4.70;88.60
47805;DHT22;33568;45.286;9.900;2023-03-01T06:08:09;4.70;88.70
47805;DHT22;33568;45.286;9.900;2023-03-01T06:10:36;4.60;89.90
47805;DHT22;33568;45.286;9.900;2023-03-01T06:13:21;4.70;88.90
47805;DHT22;33568;45.286;9.900;2023-03-01T06:15:49;4.70;88.90
47805;DHT22;33568;45.286;9.900;2023-03-01T06:18:15;4.70;89.20
47805;DHT22;33568;45.286;9.900;2023-03-01T06:20:41;4.70;89.20
47805;DHT22;33568;45.286;9.900;2023-03-01T06:23:08;4.80;89.50
47805;DHT22;33568;45.286;9.900;2023-03-01T06:25:34;4.80;89.60
47805;DHT22;33568;45.286;9.900;2023-03-01T06:28:01;4.90;89.70
47805;DHT22;33568;45.286;9.900;2023-03-01T06:30:27;4.90;89.90
47805;DHT22;33568;45.286;9.900;2023-03-01T06:33:12;5.00;90.00
47805;DHT22;33568;45.286;9.900;2023-03-01T06:35:57;5.00;90.00
47805;DHT22;33568;45.286;9.900;2023-03-01T06:38:42;5.00;90.00
47805;DHT22;33568;45.286;9.900;2023-03-01T06:41:09;5.00;90.00
47805;DHT22;33568;45.286;9.900;2023-03-01T06:43:35;5.00;90.00
47805;DHT22;33568;45.286;9.900;2023-03-01T06:46:05;5.10;90.00
47805;DHT22;33568;45.286;9.900;2023-03-01T06:48:33;5.00;90.50
47805;DHT22;33568;45.286;9.900;2023-03-01T06:51:00;5.10;90.10
47805;DHT22;33568;45.286;9.900;2023-03-01T06:53:28;5.10;90.30
47805;DHT22;33568;45.286;9.900;2023-03-01T06:55:56;5.20;90.60
47805;DHT22;33568;45.286;9.900;2023-03-01T06:58:23;5.30;90.20
47805;DHT22;33568;45.286;9.900;2023-03-01T07:01:08;5.40;90.10
47805;DHT22;33568;45.286;9.900;2023-03-01T07:03:35;5.40;90.20
47805;DHT22;33568;45.286;9.900;2023-03-01T07:06:01;5.40;90.10
47805;DHT22;33568;45.286;9.900;2023-03-01T07:08:28;5.50;90.10
47805;DHT22;33568;45.286;9.900;2023-03-01T07:10:58;5.60;90.60
47805;DHT22;33568;45.286;9.900;2023-03-01T07:13:25;5.70;90.10
47805;DHT22;33568;45.286;9.900;2023-03-01T07:15:51;5.80;89.70
47805;DHT22;33568;45.286;9.900;2023-03-01T07:18:18;5.90;89.50
47805;DHT22;33568;45.286;9.900;2023-03-01T07:20:44;5.90;90.20
47805;DHT22;33568;45.286;9.900;2023-03-01T07:23:10;6.00;89.70
47805;DHT22;33568;45.286;9.900;2023-03-01T07:25:37;6.10;89.20
47805;DHT22;33568;45.286;9.900;2023-03-01T07:28:25;6.10;89.10
47805;DHT22;33568;45.286;9.900;2023-03-01T07:30:51;6.20;89.00
47805;DHT22;33568;45.286;9.900;2023-03-01T07:33:36;6.20;89.00
47805;DHT22;33568;45.286;9.900;2023-03-01T07:36:03;6.30;88.80
47805;DHT22;33568;45.286;9.900;2023-03-01T07:38:31;6.40;88.60
47805;DHT22;33568;45.286;9.900;2023-03-01T07:41:16;6.30;88.30
47805;DHT22;33568;45.286;9.900;2023-03-01T07:43:42;6.30;88.60
47805;DHT22;33568;45.286;9.900;2023-03-01T07:49:50;6.20;88.60
47805;DHT22;33568;45.286;9.900;2023-03-01T07:55:20;6.30;88.90
47805;DHT22;33568;45.286;9.900;2023-03-01T07:57:46;6.30;88.70
47805;DHT22;33568;45.286;9.900;2023-03-01T08:00:31;6.40;88.50
47805;DHT22;33568;45.286;9.900;2023-03-01T08:03:16;6.50;88.50
47805;DHT22;33568;45.286;9.900;2023-03-01T08:05:43;6.70;88.10
47805;DHT22;33568;45.286;9.900;2023-03-01T08:11:15;7.00;87.50
47805;DHT22;33568;45.286;9.900;2023-03-01T08:14:00;7.10;87.40
47805;DHT22;33568;45.286;9.900;2023-03-01T08:16:26;7.20;86.90
47805;DHT22;33568;45.286;9.900;2023-03-01T08:18:53;7.30;87.10
47805;DHT22;33568;45.286;9.900;2023-03-01T08:21:41;7.40;87.00
47805;DHT22;33568;45.286;9.900;2023-03-01T08:24:07;7.50;86.60
47805;DHT22;33568;45.286;9.900;2023-03-01T08:27:12;7.60;85.80
47805;DHT22;33568;45.286;9.900;2023-03-01T08:29:39;7.80;85.50
47805;DHT22;33568;45.286;9.900;2023-03-01T08:32:06;7.90;85.20
47805;DHT22;33568;45.286;9.900;2023-03-01T08:37:17;8.10;84.30
47805;DHT22;33568;45.286;9.900;2023-03-01T08:39:43;8.30;84.70
47805;DHT22;33568;45.286;9.900;2023-03-01T08:42:09;8.30;83.40
47805;DHT22;33568;45.286;9.900;2023-03-01T08:44:36;8.30;83.10
47805;DHT22;33568;45.286;9.900;2023-03-01T08:47:02;8.30;80.80
47805;DHT22;33568;45.286;9.900;2023-03-01T08:49:30;8.30;82.70
47805;DHT22;33568;45.286;9.900;2023-03-01T08:51:58;8.40;82.50
47805;DHT22;33568;45.286;9.900;2023-03-01T08:54:25;8.50;81.60
47805;DHT22;33568;45.286;9.900;2023-03-01T08:56:51;8.60;81.40
47805;DHT22;33568;45.286;9.900;2023-03-01T08:59:18;8.70;80.70
47805;DHT22;33568;45.286;9.900;2023-03-01T09:01:44;8.60;80.40
47805;DHT22;33568;45.286;9.900;2023-03-01T09:04:29;8.70;80.10
47805;DHT22;33568;45.286;9.900;2023-03-01T09:06:56;8.70;79.70
47805;DHT22;33568;45.286;9.900;2023-03-01T09:09:22;8.70;79.40
47805;DHT22;33568;45.286;9.900;2023-03-01T09:14:52;8.80;78.80
47805;DHT22;33568;45.286;9.900;2023-03-01T09:17:19;8.80;78.60
47805;DHT22;33568;45.286;9.900;2023-03-01T09:19:47;8.80;76.90
47805;DHT22;33568;45.286;9.900;2023-03-01T09:22:14;9.00;78.80
47805;DHT22;33568;45.286;9.900;2023-03-01T09:24:40;9.10;78.20
47805;DHT22;33568;45.286;9.900;2023-03-01T09:27:07;9.00;77.00
47805;DHT22;33568;45.286;9.900;2023-03-01T09:29:51;9.00;76.80
47805;DHT22;33568;45.286;9.900;2023-03-01T09:32:37;9.00;77.30
47805;DHT22;33568;45.286;9.900;2023-03-01T09:35:03;9.10;76.80
47805;DHT22;33568;45.286;9.900;2023-03-01T09:37:32;9.30;76.50
47805;DHT22;33568;45.286;9.900;2023-03-01T09:40:21;9.40;75.90
47805;DHT22;33568;45.286;9.900;2023-03-01T09:43:06;9.60;75.80
47805;DHT22;33568;45.286;9.900;2023-03-01T09:45:36;10.00;74.10
47805;DHT22;33568;45.286;9.900;2023-03-01T09:50:52;10.40;73.70
47805;DHT22;33568;45.286;9.900;2023-03-01T09:53:22;10.40;73.10
47805;DHT22;33568;45.286;9.900;2023-03-01T10:00:59;10.80;70.90
47805;DHT22;33568;45.286;9.900;2023-03-01T10:03:43;10.80;70.60
47805;DHT22;33568;45.286;9.900;2023-03-01T10:06:15;10.70;69.80
47805;DHT22;33568;45.286;9.900;2023-03-01T10:09:14;10.70;70.10
47805;DHT22;33568;45.286;9.900;2023-03-01T10:12:00;10.80;69.90
47805;DHT22;33568;45.286;9.900;2023-03-01T10:19:49;11.20;69.00
47805;DHT22;33568;45.286;9.900;2023-03-01T10:24:48;12.50;67.10
47805;DHT22;33568;45.286;9.900;2023-03-01T10:32:38;12.50;63.40
47805;DHT22;33568;45.286;9.900;2023-03-01T10:35:23;12.20;64.10
47805;DHT22;33568;45.286;9.900;2023-03-01T10:38:05;12.00;63.50
47805;DHT22;33568;45.286;9.900;2023-03-01T10:40:33;11.90;63.80
47805;DHT22;33568;45.286;9.900;2023-03-01T10:43:04;11.80;64.80
47805;DHT22;33568;45.286;9.900;2023-03-01T10:45:37;11.80;64.90
47805;DHT22;33568;45.286;9.900;2023-03-01T10:50:50;11.50;64.40
47805;DHT22;33568;45.286;9.900;2023-03-01T10:53:36;11.40;65.40
47805;DHT22;33568;45.286;9.900;2023-03-01T10:56:12;11.20;64.80
47805;DHT22;33568;45.286;9.900;2023-03-01T10:58:41;11.10;65.80
47805;DHT22;33568;45.286;9.900;2023-03-01T11:09:22;11.10;65.90
47805;DHT22;33568;45.286;9.900;2023-03-01T11:11:57;11.20;65.60
47805;DHT22;33568;45.286;9.900;2023-03-01T11:14:32;11.30;65.40
47805;DHT22;33568;45.286;9.900;2023-03-01T11:25:26;11.30;65.00
47805;DHT22;33568;45.286;9.900;2023-03-01T11:27:53;11.30;64.80
47805;DHT22;33568;45.286;9.900;2023-03-01T11:32:56;11.10;65.10
47805;DHT22;33568;45.286;9.900;2023-03-01T11:35:26;10.90;64.00
47805;DHT22;33568;45.286;9.900;2023-03-01T11:37:59;10.90;65.50
47805;DHT22;33568;45.286;9.900;2023-03-01T11:41:00;10.80;65.70
47805;DHT22;33568;45.286;9.900;2023-03-01T11:43:51;10.70;64.70
47805;DHT22;33568;45.286;9.900;2023-03-01T12:03:16;10.60;65.60
47805;DHT22;33568;45.286;9.900;2023-03-01T12:09:17;10.60;65.40
47805;DHT22;33568;45.286;9.900;2023-03-01T12:14:50;10.70;66.50
47805;DHT22;33568;45.286;9.900;2023-03-01T12:17:46;10.70;66.10
47805;DHT22;33568;45.286;9.900;2023-03-01T12:26:30;10.70;66.80
47805;DHT22;33568;45.286;9.900;2023-03-01T12:29:31;10.70;66.30
47805;DHT22;33568;45.286;9.900;2023-03-01T12:32:25;10.70;66.20
47805;DHT22;33568;45.286;9.900;2023-03-01T12:37:46;10.80;66.50
47805;DHT22;33568;45.286;9.900;2023-03-01T12:49:36;10.70;66.00
47805;DHT22;33568;45.286;9.900;2023-03-01T12:52:28;10.70;66.80
47805;DHT22;33568;45.286;9.900;2023-03-01T12:55:38;10.70;66.60
47805;DHT22;33568;45.286;9.900;2023-03-01T12:58:29;10.90;66.90
47805;DHT22;33568;45.286;9.900;2023-03-01T13:07:35;11.10;66.50
47805;DHT22;33568;45.286;9.900;2023-03-01T13:10:50;11.10;66.20
47805;DHT22;33568;45.286;9.900;2023-03-01T13:13:24;11.10;65.70
47805;DHT22;33568;45.286;9.900;2023-03-01T13:19:12;11.10;66.00
47805;DHT22;33568;45.286;9.900;2023-03-01T13:21:41;11.10;66.20
47805;DHT22;33568;45.286;9.900;2023-03-01T13:24:35;11.10;66.20
47805;DHT22;33568;45.286;9.900;2023-03-01T13:27:22;11.10;65.70
47805;DHT22;33568;45.286;9.900;2023-03-01T13:29:57;11.00;66.10
47805;DHT22;33568;45.286;9.900;2023-03-01T13:32:34;10.90;66.30
47805;DHT22;33568;45.286;9.900;2023-03-01T13:35:43;10.90;66.10
47805;DHT22;33568;45.286;9.900;2023-03-01T13:42:01;10.80;65.90
47805;DHT22;33568;45.286;9.900;2023-03-01T13:52:46;10.60;66.00
47805;DHT22;33568;45.286;9.900;2023-03-01T13:57:43;10.60;66.60
47805;DHT22;33568;45.286;9.900;2023-03-01T14:00:27;10.50;66.70
47805;DHT22;33568;45.286;9.900;2023-03-01T14:05:41;10.40;67.00
47805;DHT22;33568;45.286;9.900;2023-03-01T14:08:23;10.40;67.30
47805;DHT22;33568;45.286;9.900;2023-03-01T14:21:18;10.70;67.60
47805;DHT22;33568;45.286;9.900;2023-03-01T14:23:44;10.60;67.90
47805;DHT22;33568;45.286;9.900;2023-03-01T14:26:12;10.60;68.30
47805;DHT22;33568;45.286;9.900;2023-03-01T14:28:39;10.60;68.70
47805;DHT22;33568;45.286;9.900;2023-03-01T14:31:39;10.60;69.20
47805;DHT22;33568;45.286;9.900;2023-03-01T14:34:06;10.70;68.80
47805;DHT22;33568;45.286;9.900;2023-03-01T14:36:51;10.60;69.10
47805;DHT22;33568;45.286;9.900;2023-03-01T14:39:24;10.70;69.30
47805;DHT22;33568;45.286;9.900;2023-03-01T14:41:52;10.80;69.40
47805;DHT22;33568;45.286;9.900;2023-03-01T14:44:23;10.80;69.40
47805;DHT22;33568;45.286;9.900;2023-03-01T14:46:55;10.80;69.20
47805;DHT22;33568;45.286;9.900;2023-03-01T14:49:25;10.90;69.00
47805;DHT22;33568;45.286;9.900;2023-03-01T14:52:22;10.90;69.10
47805;DHT22;33568;45.286;9.900;2023-03-01T14:54:53;10.80;69.10
47805;DHT22;33568;45.286;9.900;2023-03-01T14:57:22;10.70;69.40
47805;DHT22;33568;45.286;9.900;2023-03-01T15:00:08;10.60;69.20
47805;DHT22;33568;45.286;9.900;2023-03-01T15:02:35;10.60;69.50
47805;DHT22;33568;45.286;9.900;2023-03-01T15:05:03;10.60;69.90
47805;DHT22;33568;45.286;9.900;2023-03-01T15:07:34;10.60;70.20
47805;DHT22;33568;45.286;9.900;2023-03-01T15:10:03;10.60;70.70
47805;DHT22;33568;45.286;9.900;2023-03-01T15:12:39;10.60;71.20
47805;DHT22;33568;45.286;9.900;2023-03-01T15:17:54;10.60;72.10
47805;DHT22;33568;45.286;9.900;2023-03-01T15:20:42;10.50;72.50
47805;DHT22;33568;45.286;9.900;2023-03-01T15:23:21;10.40;73.00
47805;DHT22;33568;45.286;9.900;2023-03-01T15:25:51;10.30;74.20
47805;DHT22;33568;45.286;9.900;2023-03-01T15:28:31;10.20;74.90
47805;DHT22;33568;45.286;9.900;2023-03-01T15:31:23;10.10;75.90
47805;DHT22;33568;45.286;9.900;2023-03-01T15:33:51;9.90;77.80
47805;DHT22;33568;45.286;9.900;2023-03-01T15:36:43;9.80;78.30
47805;DHT22;33568;45.286;9.900;2023-03-01T15:39:43;9.60;79.40
47805;DHT22;33568;45.286;9.900;2023-03-01T15:42:38;9.50;82.60
47805;DHT22;33568;45.286;9.900;2023-03-01T15:45:31;9.30;83.00
47805;DHT22;33568;45.286;9.900;2023-03-01T15:48:35;9.10;85.60
47805;DHT22;33568;45.286;9.900;2023-03-01T15:51:01;8.90;85.00
47805;DHT22;33568;45.286;9.900;2023-03-01T15:53:27;8.80;86.10
47805;DHT22;33568;45.286;9.900;2023-03-01T15:55:54;8.60;91.20
47805;DHT22;33568;45.286;9.900;2023-03-01T15:58:23;8.50;88.20
47805;DHT22;33568;45.286;9.900;2023-03-01T16:00:50;8.40;89.00
47805;DHT22;33568;45.286;9.900;2023-03-01T16:03:22;8.40;89.50
47805;DHT22;33568;45.286;9.900;2023-03-01T16:06:09;8.40;89.80
47805;DHT22;33568;45.286;9.900;2023-03-01T16:08:37;8.30;90.00
47805;DHT22;33568;45.286;9.900;2023-03-01T16:11:14;8.30;90.20
47805;DHT22;33568;45.286;9.900;2023-03-01T16:13:41;8.30;90.70
47805;DHT22;33568;45.286;9.900;2023-03-01T16:16:26;8.30;90.60
47805;DHT22;33568;45.286;9.900;2023-03-01T16:21:56;8.30;91.10
47805;DHT22;33568;45.286;9.900;2023-03-01T16:24:41;8.30;91.30
47805;DHT22;33568;45.286;9.900;2023-03-01T16:27:26;8.30;91.40
47805;DHT22;33568;45.286;9.900;2023-03-01T16:29:53;8.30;92.20
47805;DHT22;33568;45.286;9.900;2023-03-01T16:32:20;8.30;91.70
47805;DHT22;33568;45.286;9.900;2023-03-01T16:34:46;8.40;91.90
47805;DHT22;33568;45.286;9.900;2023-03-01T16:37:15;8.40;91.90
47805;DHT22;33568;45.286;9.900;2023-03-01T16:39:42;8.40;92.00
47805;DHT22;33568;45.286;9.900;2023-03-01T16:42:08;8.50;92.10
47805;DHT22;33568;45.286;9.900;2023-03-01T16:44:56;8.40;93.30
47805;DHT22;33568;45.286;9.900;2023-03-01T16:47:23;8.40;92.10
47805;DHT22;33568;45.286;9.900;2023-03-01T16:49:52;8.40;92.10
47805;DHT22;33568;45.286;9.900;2023-03-01T16:52:20;8.30;92.40
47805;DHT22;33568;45.286;9.900;2023-03-01T16:54:46;8.40;92.60
47805;DHT22;33568;45.286;9.900;2023-03-01T16:57:13;8.30;92.60
47805;DHT22;33568;45.286;9.900;2023-03-01T16:59:39;8.20;94.10
47805;DHT22;33568;45.286;9.900;2023-03-01T17:02:10;8.10;93.00
47805;DHT22;33568;45.286;9.900;2023-03-01T17:04:39;8.20;93.20
47805;DHT22;33568;45.286;9.900;2023-03-01T17:07:06;8.10;93.40
47805;DHT22;33568;45.286;9.900;2023-03-01T17:09:37;8.10;93.60
47805;DHT22;33568;45.286;9.900;2023-03-01T17:12:04;8.20;93.70
47805;DHT22;33568;45.286;9.900;2023-03-01T17:14:30;8.30;93.70
47805;DHT22;33568;45.286;9.900;2023-03-01T17:16:57;8.30;93.70
47805;DHT22;33568;45.286;9.900;2023-03-01T17:19:23;8.20;93.60
47805;DHT22;33568;45.286;9.900;2023-03-01T17:21:49;8.20;93.70
47805;DHT22;33568;45.286;9.900;2023-03-01T17:24:16;8.20;93.70
47805;DHT22;33568;45.286;9.900;2023-03-01T17:27:01;8.20;93.80
47805;DHT22;33568;45.286;9.900;2023-03-01T17:29:27;8.10;93.80
47805;DHT22;33568;45.286;9.900;2023-03-01T17:31:54;8.10;95.00
47805;DHT22;33568;45.286;9.900;2023-03-01T17:34:22;8.10;93.90
47805;DHT22;33568;45.286;9.900;2023-03-01T17:36:49;8.10;93.80
47805;DHT22;33568;45.286;9.900;2023-03-01T17:39:17;8.00;93.90
47805;DHT22;33568;45.286;9.900;2023-03-01T17:41:51;8.10;94.20
47805;DHT22;33568;45.286;9.900;2023-03-01T17:44:18;8.10;94.30
47805;DHT22;33568;45.286;9.900;2023-03-01T17:49:30;8.20;94.30
47805;DHT22;33568;45.286;9.900;2023-03-01T17:51:57;8.20;94.30
47805;DHT22;33568;45.286;9.900;2023-03-01T17:54:23;8.20;94.40
47805;DHT22;33568;45.286;9.900;2023-03-01T17:56:50;8.10;95.00
47805;DHT22;33568;45.286;9.900;2023-03-01T17:59:17;8.00;94.40
47805;DHT22;33568;45.286;9.900;2023-03-01T18:02:02;8.00;94.50
47805;DHT22;33568;45.286;9.900;2023-03-01T18:04:28;8.00;94.50
47805;DHT22;33568;45.286;9.900;2023-03-01T18:06:55;7.90;94.50
47805;DHT22;33568;45.286;9.900;2023-03-01T18:09:22;7.80;94.50
47805;DHT22;33568;45.286;9.900;2023-03-01T18:11:48;7.70;94.70
47805;DHT22;33568;45.286;9.900;2023-03-01T18:14:33;7.70;94.70
47805;DHT22;33568;45.286;9.900;2023-03-01T18:16:59;7.70;94.80
47805;DHT22;33568;45.286;9.900;2023-03-01T18:19:28;7.60;95.90
47805;DHT22;33568;45.286;9.900;2023-03-01T18:22:13;7.70;94.90
47805;DHT22;33568;45.286;9.900;2023-03-01T18:24:41;7.70;94.70
47805;DHT22;33568;45.286;9.900;2023-03-01T18:27:08;7.70;94.80
47805;DHT22;33568;45.286;9.900;2023-03-01T18:29:36;7.70;95.00
47805;DHT22;33568;45.286;9.900;2023-03-01T18:32:21;7.80;95.10
47805;DHT22;33568;45.286;9.900;2023-03-01T18:34:48;7.70;95.10
47805;DHT22;33568;45.286;9.900;2023-03-01T18:37:15;7.70;95.10
47805;DHT22;33568;45.286;9.900;2023-03-01T18:39:41;7.70;95.30
47805;DHT22;33568;45.286;9.900;2023-03-01T18:42:07;7.70;95.20
47805;DHT22;33568;45.286;9.900;2023-03-01T18:44:52;7.60;95.30
47805;DHT22;33568;45.286;9.900;2023-03-01T18:47:37;7.70;95.50
47805;DHT22;33568;45.286;9.900;2023-03-01T18:50:04;7.60;95.40
47805;DHT22;33568;45.286;9.900;2023-03-01T18:52:49;7.60;95.60
47805;DHT22;33568;45.286;9.900;2023-03-01T18:55:37;7.70;95.60
47805;DHT22;33568;45.286;9.900;2023-03-01T18:58:04;7.70;95.50
47805;DHT22;33568;45.286;9.900;2023-03-01T19:00:50;7.60;95.50
47805;DHT22;33568;45.286;9.900;2023-03-01T19:03:54;7.60;96.10
47805;DHT22;33568;45.286;9.900;2023-03-01T19:06:28;7.60;95.80
47805;DHT22;33568;45.286;9.900;2023-03-01T19:09:32;7.50;95.70
47805;DHT22;33568;45.286;9.900;2023-03-01T19:12:36;7.40;96.10
47805;DHT22;33568;45.286;9.900;2023-03-01T19:15:03;7.40;96.00
47805;DHT22;33568;45.286;9.900;2023-03-01T19:17:30;7.40;95.90
47805;DHT22;33568;45.286;9.900;2023-03-01T19:20:15;7.40;95.90